KAZC

Details ICAO KAZC
Name Colorado City Muni
Region United States
Timezone America/Phoenix (UTC-7.0)
Plans Departing 11
Arriving 13
Stats Elevation 4,873 ft / 1,485 m (AMSL)
Location 36.959900° -113.014000°
Runways 2
Magnetic Variation 10.991° E
Sunrise 2019-12-15 14:39:14 UTC / 2019-12-15 07:39:14 Local
Sunset 2019-12-16 00:17:47 UTC / 2019-12-15 17:17:47 Local
Advertisement - Login to hide

Runways

ID Width Length Bearing (true/mag) Surface Threshold Overrun Markings Lighting
02 60 ft / 18 m 5,107 ft / 1,557 m 27.88° / 16.88° ASPHALT 0 ft / 0 m 0 ft / 0 m VISUAL EDGE THRESHOLD
12 75 ft / 23 m 6,296 ft / 1,919 m 122.68° / 111.69° ASPHALT 0 ft / 0 m 62 ft / 19 m APP EDGE THRESHOLD REIL-OMNI
20 60 ft / 18 m 5,107 ft / 1,557 m 207.88° / 196.89° ASPHALT 0 ft / 0 m 0 ft / 0 m VISUAL EDGE THRESHOLD
30 75 ft / 23 m 6,296 ft / 1,919 m 302.69° / 291.70° ASPHALT 0 ft / 0 m 171 ft / 52 m APP EDGE THRESHOLD REIL-OMNI

Map

Weather


0- 5 10 15 20 25 30 35+ Temperature / °C

Clouds and Precipitation
Forecast for 2019-12-16 00:00 UTC. Updated 4 hours ago

Ground ~20,000 ft ~40,000 ft Winds

METAR

KAZC 160135Z AUTO 00000KT 10SM M01/M02 A3002 RMK AO2

TAF

Not found

Frequencies

Recorded 118.37 MHz WX AWOS-3PT
Approach 124.20 MHz Los Angeles Approach
Departure 124.20 MHz Los Angeles Departure
Unicom 122.70 MHz CTAF
Unicom 122.70 MHz Unicom
Warning: Do not use this data for real-world aviation or navigation. No guarantee of current accuracy is given.